アイウン の空港の天気 - METARとTAF

アイウン/ハッサン空港 ( GMML / EUN ) - 西サハラ アイウン
飛行場実況気象(Metar)
観測時間09/22 01:00 CET (09/22 00:00 UTC)
風向・風速北東 6m/s
視程8000m
天気現象
なし
気温21℃
湿度100%
気圧1016hPa
METARGMML 220000Z 04012KT 8000 NSC 21/21 Q1016 NOSIG
過去の天気等 Google飛行場航空写真 Wunderground天気予報

過去48時間のMETAR

飛行場予報(TAF)
発表時間: 9/22 00:00 CET (9/21 23:00 UTC)
予報対象時間: 22日1時 CET ~ 23日7時 CET
風向・風速北東 8m/s
視程8000m
なし
TAF GMML 212300Z 2200/2306 04016KT 8000 NSC